createdAt,value
2023-03-11T00:00:31.227Z,95600.03
2023-03-11T00:03:23.146Z,95607.50
2023-03-11T00:06:11.638Z,95628.78
2023-03-11T00:09:00.011Z,95632.44
2023-03-11T00:11:48.371Z,95641.53
2023-03-11T00:14:36.820Z,95624.59
2023-03-11T00:17:26.662Z,95636.28
2023-03-11T00:20:19.387Z,95647.38
2023-03-11T00:23:09.101Z,95641.53
2023-03-11T00:25:59.754Z,95654.97
2023-03-11T00:28:49.412Z,95657.34
2023-03-11T00:31:37.767Z,95664.78
2023-03-11T00:34:29.795Z,95663.22
2023-03-11T00:37:19.053Z,95671.84
2023-03-11T00:40:10.990Z,95667.38
2023-03-11T00:42:59.718Z,95670.34
2023-03-11T00:45:48.280Z,95692.38
2023-03-11T00:48:36.642Z,95686.00
2023-03-11T00:51:26.402Z,95679.59
2023-03-11T00:54:14.981Z,95692.59
2023-03-11T00:57:03.323Z,95707.69
2023-03-11T00:59:52.448Z,95706.75
2023-03-11T01:02:40.992Z,95695.88
2023-03-11T01:05:31.097Z,95700.44
2023-03-11T01:08:20.740Z,95714.22
2023-03-11T01:11:09.598Z,95717.91
2023-03-11T01:13:58.094Z,95711.06
2023-03-11T01:16:46.718Z,95703.09
2023-03-11T01:19:35.028Z,95706.00
2023-03-11T01:22:23.714Z,95704.94
2023-03-11T01:25:15.297Z,95701.50
2023-03-11T01:28:03.606Z,95701.50
2023-03-11T01:30:52.164Z,95703.66
2023-03-11T01:33:42.361Z,95710.75
2023-03-11T01:36:30.733Z,95713.66
2023-03-11T01:39:19.163Z,95710.69
2023-03-11T01:42:09.102Z,95720.75
2023-03-11T01:44:58.152Z,95718.59
2023-03-11T01:47:46.528Z,95711.16
2023-03-11T01:50:38.423Z,95714.03
2023-03-11T01:53:26.971Z,95713.28
2023-03-11T01:56:15.884Z,95709.94
2023-03-11T01:59:06.726Z,95700.47
2023-03-11T02:02:00.022Z,95695.16
2023-03-11T02:04:48.573Z,95699.91
2023-03-11T02:07:39.361Z,95693.06
2023-03-11T02:10:29.108Z,95700.50
2023-03-11T02:13:18.108Z,95704.19
2023-03-11T02:16:08.857Z,95704.44
2023-03-11T02:18:58.439Z,95712.97
2023-03-11T02:21:47.100Z,95711.09
2023-03-11T02:24:40.624Z,95710.09
2023-03-11T02:27:33.059Z,95705.31
2023-03-11T02:30:24.358Z,95708.53
2023-03-11T02:33:14.867Z,95701.38
2023-03-11T02:36:06.510Z,95704.84
2023-03-11T02:38:54.999Z,95702.72
2023-03-11T02:41:46.107Z,95697.47
2023-03-11T02:44:36.152Z,95695.88
2023-03-11T02:47:24.810Z,95699.63
2023-03-11T02:50:15.448Z,95709.41
2023-03-11T02:53:04.773Z,95719.75
2023-03-11T02:55:53.071Z,95715.50
2023-03-11T02:58:41.542Z,95714.78
2023-03-11T03:01:32.723Z,95710.31
2023-03-11T03:04:21.806Z,95714.56
2023-03-11T03:07:10.874Z,95719.84
2023-03-11T03:09:59.321Z,95723.03
2023-03-11T03:12:48.052Z,95727.81
2023-03-11T03:15:36.479Z,95726.47
2023-03-11T03:18:26.509Z,95728.06
2023-03-11T03:21:15.012Z,95740.28
2023-03-11T03:24:03.823Z,95733.66
2023-03-11T03:26:53.833Z,95744.78
2023-03-11T03:29:42.381Z,95740.00
2023-03-11T03:32:30.941Z,95740.56
2023-03-11T03:35:21.139Z,95739.25
2023-03-11T03:38:19.904Z,95744.00
2023-03-11T03:41:10.554Z,95749.06
2023-03-11T03:44:02.307Z,95756.75
2023-03-11T03:46:52.067Z,95749.59
2023-03-11T03:49:40.813Z,95758.81
2023-03-11T03:52:31.169Z,95759.09
2023-03-11T03:55:20.250Z,95781.06
2023-03-11T03:58:09.245Z,95774.97
2023-03-11T04:00:58.760Z,95783.44
2023-03-11T04:03:47.286Z,95794.03
2023-03-11T04:06:36.313Z,95783.13
2023-03-11T04:09:29.444Z,95797.16
2023-03-11T04:12:18.617Z,95797.66
2023-03-11T04:15:09.564Z,95798.19
2023-03-11T04:17:59.048Z,95802.94
2023-03-11T04:20:47.726Z,95810.91
2023-03-11T04:23:36.749Z,95822.50
2023-03-11T04:26:29.059Z,95822.84
2023-03-11T04:29:17.637Z,95826.78
2023-03-11T04:32:11.253Z,95837.41
2023-03-11T04:35:01.169Z,95832.09
2023-03-11T04:37:50.625Z,95817.81
2023-03-11T04:40:40.679Z,95814.41
2023-03-11T04:43:31.093Z,95812.56
2023-03-11T04:46:19.745Z,95816.28
2023-03-11T04:49:08.637Z,95815.22
2023-03-11T04:51:57.094Z,95823.16
2023-03-11T04:54:47.190Z,95823.44
2023-03-11T04:57:37.958Z,95822.94
2023-03-11T05:00:28.229Z,95824.00
2023-03-11T05:03:25.152Z,95838.56
2023-03-11T05:06:14.086Z,95843.03
2023-03-11T05:09:02.715Z,95852.56
2023-03-11T05:11:51.932Z,95856.53
2023-03-11T05:14:41.857Z,95859.16
2023-03-11T05:17:31.897Z,95861.56
2023-03-11T05:20:21.001Z,95874.78
2023-03-11T05:23:09.849Z,95868.72
2023-03-11T05:25:59.077Z,95881.09
2023-03-11T05:28:48.161Z,95872.91
2023-03-11T05:31:36.647Z,95882.44
2023-03-11T05:34:26.618Z,95875.00
2023-03-11T05:37:15.358Z,95879.50
2023-03-11T05:40:06.669Z,95880.53
2023-03-11T05:42:57.604Z,95895.59
2023-03-11T05:45:47.937Z,95894.81
2023-03-11T05:48:36.549Z,95883.16
2023-03-11T05:51:27.144Z,95887.13
2023-03-11T05:54:16.033Z,95896.66
2023-03-11T05:57:08.050Z,95897.19
2023-03-11T05:59:57.020Z,95904.59
2023-03-11T06:02:46.217Z,95904.09
2023-03-11T06:05:37.851Z,95910.66
2023-03-11T06:08:27.851Z,95901.44
2023-03-11T06:11:16.683Z,95900.38
2023-03-11T06:14:06.142Z,95912.28
2023-03-11T06:16:54.681Z,95912.00
2023-03-11T06:19:43.132Z,95917.06
2023-03-11T06:22:31.989Z,95937.91
2023-03-11T06:25:22.064Z,95950.31
2023-03-11T06:28:10.962Z,95958.81
2023-03-11T06:31:08.705Z,95967.28
2023-03-11T06:33:57.470Z,95968.91
2023-03-11T06:36:46.054Z,95979.19
2023-03-11T06:39:34.414Z,95974.69
2023-03-11T06:42:24.441Z,95975.97
2023-03-11T06:45:14.905Z,95971.78
2023-03-11T06:48:05.065Z,95982.88
2023-03-11T06:50:56.018Z,95977.63
2023-03-11T06:53:45.133Z,95978.66
2023-03-11T06:56:33.715Z,95973.16
2023-03-11T06:59:28.813Z,95985.53
2023-03-11T07:02:17.743Z,95988.69
2023-03-11T07:05:07.280Z,95982.94
2023-03-11T07:07:56.723Z,95998.03
2023-03-11T07:10:48.315Z,95999.94
2023-03-11T07:13:38.148Z,96005.97
2023-03-11T07:16:32.247Z,96015.25
2023-03-11T07:19:27.625Z,96015.25
2023-03-11T07:22:16.606Z,96018.16
2023-03-11T07:25:05.617Z,96016.88
2023-03-11T07:27:54.087Z,96022.41
2023-03-11T07:30:44.562Z,96030.59
2023-03-11T07:33:34.406Z,96040.69
2023-03-11T07:36:24.999Z,96040.75
2023-03-11T07:39:16.208Z,96043.06
2023-03-11T07:42:05.672Z,96051.28
2023-03-11T07:44:57.726Z,96058.72
2023-03-11T07:47:46.104Z,96066.88
2023-03-11T07:50:35.846Z,96066.34
2023-03-11T07:53:24.640Z,96062.72
2023-03-11T07:56:14.998Z,96065.13
2023-03-11T07:59:04.765Z,96076.25
2023-03-11T08:01:53.571Z,96072.53
2023-03-11T08:04:42.040Z,96076.78
2023-03-11T08:07:33.807Z,96072.53
2023-03-11T08:10:22.136Z,96079.38
2023-03-11T08:13:10.573Z,96082.06
2023-03-11T08:15:59.052Z,96085.28
2023-03-11T08:18:48.526Z,96086.88
2023-03-11T08:21:37.126Z,96085.78
2023-03-11T08:24:26.906Z,96090.28
2023-03-11T08:27:15.248Z,96099.81
2023-03-11T08:30:03.725Z,96106.44
2023-03-11T08:32:53.139Z,96111.75
2023-03-11T08:35:41.748Z,96105.34
2023-03-11T08:38:30.465Z,96112.81
2023-03-11T08:41:20.883Z,96109.09
2023-03-11T08:44:09.285Z,96114.91
2023-03-11T08:46:57.800Z,96130.31
2023-03-11T08:49:46.215Z,96131.13
2023-03-11T08:52:34.883Z,96130.59
2023-03-11T08:55:27.744Z,96132.97
2023-03-11T08:58:17.542Z,96129.81
2023-03-11T09:01:06.839Z,96125.56
2023-03-11T09:03:55.616Z,96120.31
2023-03-11T09:06:44.656Z,96128.00
2023-03-11T09:09:33.583Z,96140.19
2023-03-11T09:12:22.935Z,96142.03
2023-03-11T09:15:13.157Z,96129.84
2023-03-11T09:18:04.831Z,96145.75
2023-03-11T09:20:58.161Z,96154.47
2023-03-11T09:23:46.771Z,96156.88
2023-03-11T09:26:35.222Z,96158.47
2023-03-11T09:29:23.630Z,96152.63
2023-03-11T09:32:16.040Z,96147.81
2023-03-11T09:35:04.695Z,96151.00
2023-03-11T09:37:53.250Z,96153.41
2023-03-11T09:40:54.386Z,96170.66
2023-03-11T09:43:48.826Z,96164.03
2023-03-11T09:47:05.829Z,96177.59
2023-03-11T09:50:18.929Z,96174.41
2023-03-11T09:53:20.972Z,96179.97
2023-03-11T09:56:10.931Z,96173.00
2023-03-11T09:59:03.533Z,96174.34
2023-03-11T10:01:52.340Z,96177.81
2023-03-11T10:04:44.837Z,96180.16
2023-03-11T10:07:38.887Z,96174.31
2023-03-11T10:10:31.397Z,96178.03
2023-03-11T10:13:24.937Z,96187.88
2023-03-11T10:16:22.133Z,96177.50
2023-03-11T10:19:16.118Z,96184.41
2023-03-11T10:22:14.574Z,96181.16
2023-03-11T10:25:11.718Z,96186.47
2023-03-11T10:28:08.594Z,96190.09
2023-03-11T10:30:59.903Z,96192.75
2023-03-11T10:33:52.457Z,96191.97
2023-03-11T10:36:47.496Z,96195.31
2023-03-11T10:39:36.161Z,96204.31
2023-03-11T10:42:27.295Z,96205.44
2023-03-11T10:45:17.949Z,96203.38
2023-03-11T10:48:11.822Z,96197.28
2023-03-11T10:51:05.404Z,96198.56
2023-03-11T10:53:57.374Z,96195.88
2023-03-11T10:56:51.654Z,96193.19
2023-03-11T10:59:50.560Z,96202.19
2023-03-11T11:02:42.122Z,96194.13
2023-03-11T11:05:42.308Z,96193.59
2023-03-11T11:08:38.996Z,96198.94
2023-03-11T11:11:30.469Z,96200.56
2023-03-11T11:14:19.105Z,96199.25
2023-03-11T11:17:24.700Z,96200.63
2023-03-11T11:20:18.072Z,96200.97
2023-03-11T11:23:27.127Z,96204.59
2023-03-11T11:26:22.011Z,96194.44
2023-03-11T11:29:15.591Z,96188.53
2023-03-11T11:32:21.213Z,96188.53
2023-03-11T11:35:12.941Z,96188.38
2023-03-11T11:38:04.343Z,96189.25
2023-03-11T11:40:53.606Z,96181.63
2023-03-11T11:43:49.017Z,96185.97
2023-03-11T11:46:41.237Z,96188.91
2023-03-11T11:49:33.353Z,96188.97
2023-03-11T11:52:23.929Z,96195.03
2023-03-11T11:55:20.771Z,96179.06
2023-03-11T11:58:12.309Z,96180.72
2023-03-11T12:01:09.709Z,96181.88
2023-03-11T12:04:31.172Z,96181.59
2023-03-11T12:07:29.724Z,96180.72
2023-03-11T12:10:24.654Z,96177.25
2023-03-11T12:13:31.752Z,96177.63
2023-03-11T12:16:30.653Z,96175.28
2023-03-11T12:19:23.090Z,96173.34
2023-03-11T12:22:46.152Z,96179.22
2023-03-11T12:25:39.101Z,96176.69
2023-03-11T12:28:39.229Z,96181.31
2023-03-11T12:31:29.179Z,96180.31
2023-03-11T12:34:20.992Z,96190.44
2023-03-11T12:37:17.069Z,96178.69
2023-03-11T12:40:38.596Z,96182.31
2023-03-11T12:44:11.965Z,96192.00
2023-03-11T12:47:19.281Z,96191.00
2023-03-11T12:50:39.496Z,96184.03
2023-03-11T12:53:44.515Z,96176.34
2023-03-11T12:56:36.961Z,96169.63
2023-03-11T13:00:09.764Z,96168.66
2023-03-11T13:03:16.035Z,96175.44
2023-03-11T13:06:17.865Z,96173.72
2023-03-11T13:09:06.704Z,96165.94
2023-03-11T13:11:57.119Z,96168.84
2023-03-11T13:14:45.934Z,96163.84
2023-03-11T13:17:34.438Z,96167.78
2023-03-11T13:20:45.146Z,96159.88
2023-03-11T13:23:35.950Z,96171.38
2023-03-11T13:26:33.162Z,96168.06
2023-03-11T13:29:52.073Z,96182.44
2023-03-11T13:32:58.452Z,96172.09
2023-03-11T13:35:59.556Z,96180.53
2023-03-11T13:39:08.703Z,96194.38
2023-03-11T13:41:57.287Z,96191.75
2023-03-11T13:44:47.109Z,96193.78
2023-03-11T13:47:36.813Z,96205.31
2023-03-11T13:50:28.425Z,96205.84
2023-03-11T13:53:21.239Z,96201.84
2023-03-11T13:56:18.493Z,96204.50
2023-03-11T13:59:21.833Z,96206.44
2023-03-11T14:02:20.068Z,96201.47
2023-03-11T14:05:15.260Z,96200.72
2023-03-11T14:08:15.792Z,96210.28
2023-03-11T14:11:16.921Z,96221.06
2023-03-11T14:14:47.822Z,96217.53
2023-03-11T14:17:41.589Z,96212.19
2023-03-11T14:20:30.290Z,96218.59
2023-03-11T14:23:23.006Z,96225.38
2023-03-11T14:26:22.703Z,96220.28
2023-03-11T14:29:53.613Z,96219.91
2023-03-11T14:33:46.993Z,96221.06
2023-03-11T14:36:44.986Z,96229.84
2023-03-11T14:39:37.716Z,96246.66
2023-03-11T14:43:00.691Z,96238.16
2023-03-11T14:46:12.562Z,96238.34
2023-03-11T14:49:02.589Z,96233.75
2023-03-11T14:51:57.141Z,96237.00
2023-03-11T14:54:46.807Z,96240.91
2023-03-11T14:57:40.720Z,96238.16
2023-03-11T15:00:30.893Z,96245.66
2023-03-11T15:03:24.276Z,96237.53
2023-03-11T15:06:16.532Z,96238.09
2023-03-11T15:09:08.043Z,96241.28
2023-03-11T15:11:59.210Z,96245.78
2023-03-11T15:14:52.182Z,96239.38
2023-03-11T15:17:44.358Z,96235.25
2023-03-11T15:20:34.887Z,96240.81
2023-03-11T15:23:24.170Z,96245.38
2023-03-11T15:26:19.891Z,96250.69
2023-03-11T15:29:15.098Z,96240.69
2023-03-11T15:32:36.391Z,96243.09
2023-03-11T15:35:25.698Z,96251.53
2023-03-11T15:38:21.625Z,96251.31
2023-03-11T15:41:11.550Z,96255.81
2023-03-11T15:44:02.097Z,96262.34
2023-03-11T15:46:50.401Z,96259.44
2023-03-11T15:49:40.313Z,96268.50
2023-03-11T15:52:28.810Z,96279.41
2023-03-11T15:55:19.488Z,96273.44
2023-03-11T15:58:09.251Z,96274.38
2023-03-11T16:00:58.635Z,96284.69
2023-03-11T16:03:47.109Z,96289.16
2023-03-11T16:06:36.872Z,96293.84
2023-03-11T16:09:25.291Z,96283.72
2023-03-11T16:12:19.092Z,96286.38
2023-03-11T16:15:11.887Z,96290.84
2023-03-11T16:18:01.109Z,96282.13
2023-03-11T16:20:51.919Z,96288.47
2023-03-11T16:23:51.613Z,96290.13
2023-03-11T16:26:40.637Z,96288.19
2023-03-11T16:29:29.047Z,96294.38
2023-03-11T16:32:17.507Z,96298.03
2023-03-11T16:35:06.686Z,96300.78
2023-03-11T16:37:55.612Z,96304.91
2023-03-11T16:40:45.459Z,96298.91
2023-03-11T16:43:34.020Z,96304.13
2023-03-11T16:46:22.412Z,96298.19
2023-03-11T16:49:10.750Z,96283.16
2023-03-11T16:51:59.225Z,96296.38
2023-03-11T16:54:47.747Z,96301.56
2023-03-11T16:57:38.810Z,96294.63
2023-03-11T17:00:27.960Z,96294.56
2023-03-11T17:03:21.337Z,96298.97
2023-03-11T17:06:10.419Z,96329.94
2023-03-11T17:08:58.910Z,96335.06
2023-03-11T17:11:49.962Z,96349.31
2023-03-11T17:14:40.101Z,96366.16
2023-03-11T17:17:28.565Z,96378.13
2023-03-11T17:20:17.189Z,96395.66
2023-03-11T17:23:05.696Z,96398.31
2023-03-11T17:25:55.966Z,96409.78
2023-03-11T17:28:44.956Z,96415.88
2023-03-11T17:31:34.836Z,96418.84
2023-03-11T17:34:23.974Z,96421.22
2023-03-11T17:37:12.436Z,96416.47
2023-03-11T17:40:00.911Z,96411.66
2023-03-11T17:42:49.318Z,96381.91
2023-03-11T17:45:39.981Z,96371.00
2023-03-11T17:48:29.829Z,96383.75
2023-03-11T17:51:19.528Z,96376.81
2023-03-11T17:54:07.917Z,96379.72
2023-03-11T17:56:58.935Z,96386.59
2023-03-11T17:59:51.015Z,96396.47
2023-03-11T18:02:39.408Z,96397.25
2023-03-11T18:05:29.116Z,96402.28
2023-03-11T18:08:17.553Z,96410.00
2023-03-11T18:11:07.896Z,96411.84
2023-03-11T18:13:59.273Z,96415.56
2023-03-11T18:16:47.729Z,96410.00
2023-03-11T18:19:36.602Z,96424.09
2023-03-11T18:22:27.060Z,96421.97
2023-03-11T18:25:15.571Z,96414.22
2023-03-11T18:28:04.100Z,96422.19
2023-03-11T18:30:53.964Z,96431.25
2023-03-11T18:33:42.809Z,96433.91
2023-03-11T18:36:32.367Z,96431.78
2023-03-11T18:39:22.227Z,96427.31
2023-03-11T18:42:10.934Z,96444.59
2023-03-11T18:44:59.680Z,96445.66
2023-03-11T18:47:48.127Z,96440.34
2023-03-11T18:50:36.488Z,96444.59
2023-03-11T18:53:26.026Z,96442.97
2023-03-11T18:56:17.406Z,96442.47
2023-03-11T18:59:05.972Z,96449.38
2023-03-11T19:01:56.524Z,96454.72
2023-03-11T19:04:45.165Z,96455.78
2023-03-11T19:07:33.953Z,96452.06
2023-03-11T19:10:22.806Z,96459.50
2023-03-11T19:13:12.792Z,96465.34
2023-03-11T19:16:01.299Z,96467.19
2023-03-11T19:18:51.368Z,96480.22
2023-03-11T19:21:40.337Z,96474.91
2023-03-11T19:24:28.933Z,96470.13
2023-03-11T19:27:17.453Z,96478.91
2023-03-11T19:30:09.844Z,96470.38
2023-03-11T19:33:00.800Z,96478.34
2023-03-11T19:35:53.342Z,96477.53
2023-03-11T19:38:41.911Z,96488.44
2023-03-11T19:41:30.340Z,96491.34
2023-03-11T19:44:18.939Z,96494.28
2023-03-11T19:47:08.824Z,96495.59
2023-03-11T19:49:57.463Z,96498.25
2023-03-11T19:52:46.439Z,96495.59
2023-03-11T19:55:34.873Z,96505.19
2023-03-11T19:58:24.730Z,96501.47
2023-03-11T20:01:17.590Z,96499.06
2023-03-11T20:04:07.556Z,96495.88
2023-03-11T20:06:56.092Z,96498.75
2023-03-11T20:09:45.074Z,96501.41
2023-03-11T20:12:34.396Z,96510.38
2023-03-11T20:15:22.819Z,96505.31
2023-03-11T20:18:11.436Z,96513.44
2023-03-11T20:21:02.785Z,96516.78
2023-03-11T20:23:51.661Z,96512.78
2023-03-11T20:26:40.135Z,96509.63
2023-03-11T20:29:28.658Z,96518.28
2023-03-11T20:32:17.448Z,96520.00
2023-03-11T20:35:06.999Z,96511.28
2023-03-11T20:37:57.055Z,96524.22
2023-03-11T20:40:45.542Z,96521.19
2023-03-11T20:43:34.224Z,96527.84
2023-03-11T20:46:22.770Z,96523.94
2023-03-11T20:49:11.556Z,96525.56
2023-03-11T20:52:02.887Z,96527.75
2023-03-11T20:54:53.052Z,96531.31
2023-03-11T20:57:42.456Z,96534.25
2023-03-11T21:00:30.938Z,96538.31
2023-03-11T21:03:19.839Z,96538.06
2023-03-11T21:06:15.566Z,96544.44
2023-03-11T21:09:05.790Z,96545.56
2023-03-11T21:11:56.060Z,96543.41
2023-03-11T21:14:44.628Z,96540.91
2023-03-11T21:17:34.109Z,96547.78
2023-03-11T21:20:22.858Z,96543.91
2023-03-11T21:23:11.378Z,96546.06
2023-03-11T21:26:00.405Z,96550.88
2023-03-11T21:28:50.434Z,96547.25
2023-03-11T21:31:39.066Z,96552.03
2023-03-11T21:34:27.539Z,96558.94
2023-03-11T21:37:16.246Z,96557.84
2023-03-11T21:40:06.155Z,96552.81
2023-03-11T21:42:54.866Z,96556.25
2023-03-11T21:45:45.232Z,96552.25
2023-03-11T21:48:34.180Z,96556.97
2023-03-11T21:51:23.047Z,96553.97
2023-03-11T21:54:12.770Z,96552.78
2023-03-11T21:57:01.449Z,96555.75
2023-03-11T21:59:50.113Z,96553.44
2023-03-11T22:02:39.884Z,96553.75
2023-03-11T22:05:28.515Z,96558.56
2023-03-11T22:08:17.046Z,96556.00
2023-03-11T22:11:08.927Z,96552.66
2023-03-11T22:14:00.834Z,96560.25
2023-03-11T22:16:49.413Z,96559.78
2023-03-11T22:19:39.325Z,96560.44
2023-03-11T22:22:27.884Z,96565.38
2023-03-11T22:25:16.437Z,96568.88
2023-03-11T22:28:05.491Z,96568.88
2023-03-11T22:30:54.022Z,96573.31
2023-03-11T22:33:42.682Z,96578.94
2023-03-11T22:36:32.504Z,96575.44
2023-03-11T22:39:20.820Z,96568.16
2023-03-11T22:42:09.258Z,96564.91
2023-03-11T22:44:57.655Z,96569.63
2023-03-11T22:47:46.091Z,96574.75
2023-03-11T22:50:34.967Z,96571.72
2023-03-11T22:53:25.153Z,96573.59
2023-03-11T22:56:15.163Z,96576.09
2023-03-11T22:59:03.711Z,96590.81
2023-03-11T23:01:52.143Z,96586.31
2023-03-11T23:04:40.541Z,96582.03
2023-03-11T23:07:28.899Z,96580.06
2023-03-11T23:10:21.013Z,96589.41
2023-03-11T23:13:10.067Z,96589.91
2023-03-11T23:16:04.727Z,96590.53
2023-03-11T23:18:55.009Z,96610.66
2023-03-11T23:21:43.401Z,96597.22
2023-03-11T23:24:31.940Z,96588.59
2023-03-11T23:27:22.400Z,96594.44
2023-03-11T23:30:12.188Z,96601.53
2023-03-11T23:33:02.792Z,96600.78
2023-03-11T23:35:51.275Z,96605.59
2023-03-11T23:38:40.009Z,96604.63
2023-03-11T23:41:29.309Z,96604.63
2023-03-11T23:44:19.472Z,96609.84
2023-03-11T23:47:08.054Z,96608.50
2023-03-11T23:49:56.602Z,96611.38
2023-03-11T23:52:45.108Z,96605.38
2023-03-11T23:55:33.623Z,96607.22
2023-03-11T23:58:23.480Z,96608.44
